CheckWX is a tool to help pilots better visualize weather data.  It is not intended as a substitute for an official pre-flight weather briefing.

20:30:10 UTC

KOQT METAR
Oak Ridge Airport
Tennessee, USA
Current

37 mins ago

KOQT 261953Z AUTO VRB03KT 10SM CLR 32/17 A3017 RMK AO2 SLP200 T03170172
Observed
Jun-26 @ 19:53 UTC
Wind
  • Variable at 3 KTS
Visibility
10 SM
Flight Rules
VFR
Cloud Levels
  • Clear skies
Temperature
32°C / 90°F
Dewpoint
17°C / 63°F
Heat Index
33°C / 91°F
Humidity
41%
Altimeter
30.17" Hg
Pressure
1021.72 hPa
Previous

2 hours ago

KOQT 261853Z AUTO 15003KT 10SM CLR 31/16 A3019 RMK AO2 SLP205 T03060156
Observed
Jun-26 @ 18:53 UTC
Wind
  • 150° at 3 KTS
Visibility
10 SM
Flight Rules
VFR
Cloud Levels
  • Clear skies
Temperature
31°C / 88°F
Dewpoint
16°C / 61°F
Heat Index
31°C / 88°F
Humidity
40%
Altimeter
30.19" Hg
Pressure
1022.32 hPa
Previous

3 hours ago

KOQT 261753Z AUTO VRB03KT 10SM CLR 29/17 A3020 RMK AO2 SLP211 T02940172 10300 20183 58010
Observed
Jun-26 @ 17:53 UTC
Wind
  • Variable at 3 KTS
Visibility
10 SM
Flight Rules
VFR
Cloud Levels
  • Clear skies
Temperature
29°C / 84°F
Dewpoint
17°C / 63°F
Heat Index
29°C / 85°F
Humidity
48%
Altimeter
30.2" Hg
Pressure
1022.72 hPa